createdAt,value
2023-05-14T00:01:16.739Z,5.57
2023-05-14T00:03:44.975Z,6.43
2023-05-14T00:06:12.150Z,6.20
2023-05-14T00:08:39.119Z,5.97
2023-05-14T00:11:06.363Z,5.70
2023-05-14T00:13:35.965Z,6.03
2023-05-14T00:16:04.344Z,5.93
2023-05-14T00:18:31.862Z,5.75
2023-05-14T00:20:58.960Z,5.60
2023-05-14T00:23:26.274Z,5.88
2023-05-14T00:25:53.284Z,5.13
2023-05-14T00:28:21.433Z,5.47
2023-05-14T00:30:49.190Z,6.35
2023-05-14T00:33:16.271Z,5.50
2023-05-14T00:35:43.525Z,5.85
2023-05-14T00:38:17.057Z,5.93
2023-05-14T00:40:46.150Z,5.82
2023-05-14T00:43:13.197Z,5.50
2023-05-14T00:45:41.066Z,6.10
2023-05-14T00:48:09.268Z,6.03
2023-05-14T00:50:36.644Z,6.00
2023-05-14T00:53:10.364Z,6.25
2023-05-14T00:55:40.168Z,6.03
2023-05-14T00:58:10.150Z,6.03
2023-05-14T01:03:06.224Z,5.05
2023-05-14T01:06:01.197Z,5.28
2023-05-14T01:08:40.694Z,5.55
2023-05-14T01:11:27.428Z,5.72
2023-05-14T01:14:07.638Z,5.60
2023-05-14T01:16:36.054Z,5.95
2023-05-14T01:19:07.817Z,5.72
2023-05-14T01:21:38.671Z,6.18
2023-05-14T01:24:06.063Z,5.40
2023-05-14T01:26:35.202Z,6.40
2023-05-14T01:29:19.631Z,5.40
2023-05-14T01:31:48.953Z,5.68
2023-05-14T01:34:18.217Z,5.95
2023-05-14T01:36:48.589Z,5.78
2023-05-14T01:39:16.016Z,5.60
2023-05-14T01:41:44.114Z,6.07
2023-05-14T01:44:12.938Z,5.85
2023-05-14T01:46:39.982Z,6.43
2023-05-14T01:49:07.092Z,5.95
2023-05-14T01:51:34.364Z,6.53
2023-05-14T01:54:03.086Z,6.63
2023-05-14T01:56:30.107Z,6.03
2023-05-14T01:58:57.967Z,6.22
2023-05-14T02:01:26.345Z,5.90
2023-05-14T02:03:54.115Z,6.40
2023-05-14T02:06:23.604Z,6.13
2023-05-14T02:08:50.737Z,6.50
2023-05-14T02:11:23.152Z,6.00
2023-05-14T02:13:50.457Z,6.25
2023-05-14T02:16:18.344Z,6.43
2023-05-14T02:18:46.879Z,7.07
2023-05-14T02:21:15.751Z,5.70
2023-05-14T02:23:44.316Z,5.60
2023-05-14T02:26:12.429Z,5.55
2023-05-14T02:28:39.472Z,6.18
2023-05-14T02:31:06.945Z,5.90
2023-05-14T02:33:35.638Z,5.75
2023-05-14T02:36:02.891Z,5.80
2023-05-14T02:38:29.933Z,5.20
2023-05-14T02:40:56.946Z,5.72
2023-05-14T02:43:24.384Z,5.78
2023-05-14T02:45:52.417Z,5.38
2023-05-14T02:48:22.815Z,5.90
2023-05-14T02:50:52.912Z,6.22
2023-05-14T02:55:46.986Z,5.43
2023-05-14T02:58:13.938Z,6.00
2023-05-14T03:00:42.331Z,6.28
2023-05-14T03:03:09.639Z,6.22
2023-05-14T03:05:38.104Z,6.32
2023-05-14T03:08:05.309Z,6.10
2023-05-14T03:10:32.991Z,5.90
2023-05-14T03:13:00.010Z,5.75
2023-05-14T03:15:27.048Z,5.85
2023-05-14T03:17:54.334Z,6.07
2023-05-14T03:20:22.473Z,6.82
2023-05-14T03:22:50.150Z,6.22
2023-05-14T03:25:17.224Z,5.90
2023-05-14T03:27:44.239Z,6.07
2023-05-14T03:30:16.525Z,6.28
2023-05-14T03:32:44.259Z,6.05
2023-05-14T03:35:13.387Z,6.05
2023-05-14T03:37:41.373Z,6.88
2023-05-14T03:40:08.860Z,6.70
2023-05-14T03:42:37.003Z,6.63
2023-05-14T03:45:04.241Z,6.70
2023-05-14T03:47:31.255Z,6.45
2023-05-14T03:50:03.088Z,6.07
2023-05-14T03:52:30.218Z,6.43
2023-05-14T03:54:57.242Z,6.47
2023-05-14T03:57:24.500Z,6.85
2023-05-14T03:59:52.077Z,7.10
2023-05-14T04:02:20.602Z,6.18
2023-05-14T04:04:47.771Z,6.45
2023-05-14T04:07:18.907Z,7.57
2023-05-14T04:09:46.602Z,7.25
2023-05-14T04:12:14.790Z,7.07
2023-05-14T04:14:43.143Z,6.40
2023-05-14T04:17:11.148Z,7.18
2023-05-14T04:19:39.576Z,6.95
2023-05-14T04:22:07.400Z,6.50
2023-05-14T04:24:37.503Z,7.30
2023-05-14T04:27:05.160Z,6.85
2023-05-14T04:29:32.191Z,6.72
2023-05-14T04:31:59.986Z,6.45
2023-05-14T04:34:28.495Z,6.53
2023-05-14T04:36:56.106Z,6.65
2023-05-14T04:39:23.417Z,6.72
2023-05-14T04:41:50.358Z,6.65
2023-05-14T04:44:17.846Z,7.03
2023-05-14T04:46:46.977Z,7.10
2023-05-14T04:49:14.010Z,7.07
2023-05-14T04:51:43.901Z,7.50
2023-05-14T04:54:11.418Z,7.45
2023-05-14T04:56:39.441Z,7.22
2023-05-14T04:59:06.484Z,7.78
2023-05-14T05:01:33.519Z,7.47
2023-05-14T05:04:00.901Z,7.75
2023-05-14T05:06:27.988Z,7.88
2023-05-14T05:08:56.347Z,7.35
2023-05-14T05:11:23.288Z,10.98
2023-05-14T05:13:50.685Z,8.43
2023-05-14T05:16:17.697Z,8.65
2023-05-14T05:18:45.635Z,7.65
2023-05-14T05:21:12.741Z,8.48
2023-05-14T05:23:39.779Z,8.07
2023-05-14T05:26:06.815Z,8.05
2023-05-14T05:28:33.668Z,8.90
2023-05-14T05:31:00.616Z,8.60
2023-05-14T05:33:27.649Z,32.70
2023-05-14T05:35:54.685Z,29.75
2023-05-14T05:38:21.678Z,66.10
2023-05-14T05:40:48.642Z,27.13
2023-05-14T05:43:15.728Z,9.68
2023-05-14T05:45:42.684Z,9.20
2023-05-14T05:48:09.665Z,11.02
2023-05-14T05:50:36.605Z,8.32
2023-05-14T05:53:03.996Z,8.20
2023-05-14T05:55:30.980Z,9.10
2023-05-14T05:57:57.842Z,11.00
2023-05-14T06:00:25.185Z,10.57
2023-05-14T06:02:52.880Z,8.50
2023-05-14T06:05:19.920Z,9.00
2023-05-14T06:07:46.906Z,9.32
2023-05-14T06:10:13.831Z,9.20
2023-05-14T06:12:40.886Z,8.35
2023-05-14T06:15:08.308Z,10.38
2023-05-14T06:17:35.378Z,8.05
2023-05-14T06:20:02.450Z,7.63
2023-05-14T06:22:29.462Z,8.32
2023-05-14T06:24:56.416Z,8.38
2023-05-14T06:27:23.377Z,8.10
2023-05-14T06:29:50.361Z,8.18
2023-05-14T06:32:17.610Z,8.45
2023-05-14T06:34:44.662Z,8.30
2023-05-14T06:37:11.809Z,8.10
2023-05-14T06:39:38.856Z,8.98
2023-05-14T06:42:06.624Z,8.20
2023-05-14T06:44:33.505Z,8.50
2023-05-14T06:47:00.441Z,8.90
2023-05-14T06:49:27.303Z,8.98
2023-05-14T06:51:54.251Z,9.27
2023-05-14T06:54:21.249Z,9.05
2023-05-14T06:56:48.133Z,8.98
2023-05-14T06:59:15.023Z,8.63
2023-05-14T07:01:41.947Z,9.45
2023-05-14T07:04:08.967Z,8.38
2023-05-14T07:06:35.892Z,8.50
2023-05-14T07:09:03.235Z,8.25
2023-05-14T07:11:30.454Z,7.82
2023-05-14T07:13:57.443Z,7.43
2023-05-14T07:16:24.402Z,8.25
2023-05-14T07:18:52.428Z,8.75
2023-05-14T07:21:19.487Z,7.80
2023-05-14T07:23:46.414Z,7.28
2023-05-14T07:26:13.291Z,8.07
2023-05-14T07:28:40.317Z,8.63
2023-05-14T07:31:09.131Z,9.32
2023-05-14T07:33:36.694Z,8.60
2023-05-14T07:36:03.824Z,8.70
2023-05-14T07:38:31.177Z,9.13
2023-05-14T07:40:58.537Z,8.20
2023-05-14T07:43:26.136Z,8.05
2023-05-14T07:45:53.107Z,7.68
2023-05-14T07:48:20.064Z,7.70
2023-05-14T07:50:48.313Z,8.50
2023-05-14T07:53:15.247Z,9.13
2023-05-14T07:55:42.340Z,8.20
2023-05-14T07:58:09.343Z,8.10
2023-05-14T08:00:36.500Z,7.55
2023-05-14T08:03:03.719Z,7.82
2023-05-14T08:05:31.868Z,7.72
2023-05-14T08:07:58.919Z,7.70
2023-05-14T08:10:26.250Z,7.85
2023-05-14T08:12:53.358Z,7.47
2023-05-14T08:15:20.413Z,8.32
2023-05-14T08:17:47.417Z,8.18
2023-05-14T08:20:14.504Z,8.50
2023-05-14T08:22:41.433Z,8.18
2023-05-14T08:25:08.693Z,8.13
2023-05-14T08:27:35.604Z,8.65
2023-05-14T08:30:02.522Z,7.32
2023-05-14T08:32:29.897Z,8.30
2023-05-14T08:34:56.795Z,8.10
2023-05-14T08:37:23.686Z,8.70
2023-05-14T08:39:50.722Z,8.35
2023-05-14T08:42:20.870Z,8.68
2023-05-14T08:44:58.210Z,9.38
2023-05-14T08:47:25.741Z,8.18
2023-05-14T08:50:04.434Z,8.13
2023-05-14T08:52:31.849Z,8.77
2023-05-14T08:55:05.559Z,9.32
2023-05-14T08:57:33.391Z,9.10
2023-05-14T09:00:01.514Z,8.48
2023-05-14T09:02:30.690Z,9.32
2023-05-14T09:05:00.200Z,8.40
2023-05-14T09:07:28.001Z,8.95
2023-05-14T09:09:55.697Z,8.95
2023-05-14T09:12:22.844Z,7.97
2023-05-14T09:14:50.983Z,8.38
2023-05-14T09:17:19.111Z,8.52
2023-05-14T09:19:53.156Z,9.20
2023-05-14T09:22:21.046Z,9.00
2023-05-14T09:25:05.390Z,8.18
2023-05-14T09:27:33.279Z,7.38
2023-05-14T09:30:11.305Z,8.05
2023-05-14T09:32:46.143Z,7.80
2023-05-14T09:35:20.632Z,7.97
2023-05-14T09:37:52.954Z,8.27
2023-05-14T09:40:21.836Z,6.80
2023-05-14T09:42:49.381Z,6.80
2023-05-14T09:45:17.231Z,6.75
2023-05-14T09:47:45.044Z,7.20
2023-05-14T09:50:12.390Z,8.27
2023-05-14T09:52:39.567Z,7.18
2023-05-14T09:55:07.009Z,6.88
2023-05-14T09:57:34.621Z,6.38
2023-05-14T10:00:01.753Z,6.80
2023-05-14T10:05:06.463Z,5.53
2023-05-14T10:08:01.240Z,5.95
2023-05-14T10:10:29.569Z,4.85
2023-05-14T10:13:04.650Z,4.97
2023-05-14T10:15:40.884Z,6.00
2023-05-14T10:18:13.001Z,5.50
2023-05-14T10:20:41.674Z,4.75
2023-05-14T10:23:08.927Z,4.90
2023-05-14T10:25:37.492Z,4.45
2023-05-14T10:28:06.221Z,5.13
2023-05-14T10:30:33.186Z,4.57
2023-05-14T10:33:12.177Z,4.95
2023-05-14T10:36:00.449Z,4.82
2023-05-14T10:38:35.737Z,4.95
2023-05-14T10:41:05.100Z,5.05
2023-05-14T10:43:40.512Z,4.68
2023-05-14T10:46:09.744Z,4.78
2023-05-14T10:48:37.976Z,4.47
2023-05-14T10:51:08.634Z,4.28
2023-05-14T10:53:37.993Z,4.65
2023-05-14T10:56:10.089Z,4.25
2023-05-14T10:58:42.892Z,4.10
2023-05-14T11:01:12.395Z,4.47
2023-05-14T11:03:45.452Z,4.50
2023-05-14T11:06:15.579Z,4.43
2023-05-14T11:08:42.972Z,4.32
2023-05-14T11:11:10.915Z,4.32
2023-05-14T11:13:38.460Z,3.92
2023-05-14T11:16:15.571Z,3.80
2023-05-14T11:19:00.767Z,4.28
2023-05-14T11:21:27.877Z,3.70
2023-05-14T11:23:55.684Z,4.95
2023-05-14T11:26:24.198Z,4.55
2023-05-14T11:28:51.625Z,4.65
2023-05-14T11:31:19.146Z,4.93
2023-05-14T11:33:46.359Z,4.75
2023-05-14T11:36:13.381Z,4.53
2023-05-14T11:38:51.400Z,4.63
2023-05-14T11:41:21.052Z,4.53
2023-05-14T11:43:48.226Z,5.18
2023-05-14T11:46:18.767Z,4.43
2023-05-14T11:48:46.024Z,4.57
2023-05-14T11:51:13.075Z,4.78
2023-05-14T11:53:40.000Z,4.30
2023-05-14T11:56:09.608Z,5.30
2023-05-14T11:58:37.029Z,4.40
2023-05-14T12:01:04.028Z,4.38
2023-05-14T12:03:31.405Z,4.68
2023-05-14T12:06:06.422Z,4.60
2023-05-14T12:08:33.706Z,4.50
2023-05-14T12:11:01.524Z,4.55
2023-05-14T12:13:32.327Z,4.85
2023-05-14T12:16:00.836Z,4.70
2023-05-14T12:18:29.663Z,4.18
2023-05-14T12:21:02.321Z,4.75
2023-05-14T12:23:32.914Z,4.22
2023-05-14T12:26:08.288Z,4.63
2023-05-14T12:28:38.579Z,2.95
2023-05-14T12:31:06.008Z,3.08
2023-05-14T12:33:33.025Z,2.97
2023-05-14T12:36:07.375Z,3.42
2023-05-14T12:38:41.622Z,3.45
2023-05-14T12:41:08.543Z,4.43
2023-05-14T12:43:35.371Z,4.50
2023-05-14T12:46:02.250Z,3.78
2023-05-14T12:48:29.226Z,4.13
2023-05-14T12:50:56.149Z,4.43
2023-05-14T12:53:22.989Z,3.83
2023-05-14T12:55:50.160Z,4.05
2023-05-14T12:58:17.115Z,3.97
2023-05-14T13:00:44.363Z,4.13
2023-05-14T13:03:11.417Z,4.72
2023-05-14T13:05:38.414Z,4.47
2023-05-14T13:08:05.327Z,5.18
2023-05-14T13:10:32.120Z,4.30
2023-05-14T13:12:59.143Z,4.72
2023-05-14T13:15:26.298Z,4.00
2023-05-14T13:17:53.417Z,3.80
2023-05-14T13:20:20.340Z,2.90
2023-05-14T13:22:47.298Z,2.90
2023-05-14T13:25:14.235Z,2.97
2023-05-14T13:27:41.100Z,3.22
2023-05-14T13:30:08.431Z,3.03
2023-05-14T13:32:35.585Z,3.42
2023-05-14T13:35:02.459Z,2.97
2023-05-14T13:37:29.520Z,2.30
2023-05-14T13:39:56.389Z,2.10
2023-05-14T13:42:23.737Z,1.90
2023-05-14T13:44:50.863Z,2.30
2023-05-14T13:47:17.878Z,2.45
2023-05-14T13:49:44.951Z,2.30
2023-05-14T13:52:11.828Z,2.40
2023-05-14T13:54:38.638Z,2.15
2023-05-14T13:57:05.973Z,2.33
2023-05-14T13:59:32.890Z,2.28
2023-05-14T14:01:59.964Z,2.13
2023-05-14T14:04:29.087Z,2.40
2023-05-14T14:06:56.205Z,2.55
2023-05-14T14:09:23.094Z,2.22
2023-05-14T14:11:50.508Z,2.25
2023-05-14T14:14:17.862Z,2.40
2023-05-14T14:16:44.975Z,2.08
2023-05-14T14:19:11.905Z,2.05
2023-05-14T14:21:42.721Z,2.25
2023-05-14T14:24:09.651Z,2.35
2023-05-14T14:26:36.528Z,2.47
2023-05-14T14:29:03.582Z,2.20
2023-05-14T14:31:30.727Z,2.50
2023-05-14T14:33:57.630Z,2.13
2023-05-14T14:36:24.510Z,2.45
2023-05-14T14:38:51.488Z,2.40
2023-05-14T14:41:18.408Z,2.60
2023-05-14T14:43:45.429Z,2.40
2023-05-14T14:46:12.336Z,2.22
2023-05-14T14:48:39.231Z,2.63
2023-05-14T14:51:07.834Z,2.42
2023-05-14T14:53:35.931Z,2.28
2023-05-14T14:56:02.918Z,2.13
2023-05-14T14:58:30.959Z,2.33
2023-05-14T15:00:58.199Z,2.22
2023-05-14T15:03:25.531Z,2.90
2023-05-14T15:05:53.673Z,2.70
2023-05-14T15:08:24.302Z,2.70
2023-05-14T15:10:51.185Z,2.80
2023-05-14T15:13:18.131Z,2.58
2023-05-14T15:15:45.095Z,2.55
2023-05-14T15:18:12.177Z,2.70
2023-05-14T15:20:39.248Z,2.63
2023-05-14T15:23:06.736Z,2.35
2023-05-14T15:25:33.591Z,2.50
2023-05-14T15:28:00.582Z,1.95
2023-05-14T15:30:27.484Z,2.15
2023-05-14T15:32:54.609Z,1.95
2023-05-14T15:35:21.701Z,1.73
2023-05-14T15:37:48.834Z,1.85
2023-05-14T15:40:15.713Z,2.15
2023-05-14T15:42:43.829Z,1.50
2023-05-14T15:45:12.524Z,1.85
2023-05-14T15:47:40.230Z,1.65
2023-05-14T15:50:08.233Z,2.00
2023-05-14T15:52:36.253Z,1.83
2023-05-14T15:55:06.242Z,2.20
2023-05-14T15:57:33.518Z,2.05
2023-05-14T16:00:00.512Z,2.30
2023-05-14T16:02:30.363Z,2.75
2023-05-14T16:04:57.387Z,2.70
2023-05-14T16:07:24.270Z,2.28
2023-05-14T16:09:51.189Z,2.47
2023-05-14T16:12:18.132Z,2.30
2023-05-14T16:14:45.403Z,2.50
2023-05-14T16:17:12.348Z,2.67
2023-05-14T16:19:39.899Z,2.80
2023-05-14T16:22:06.790Z,2.90
2023-05-14T16:24:33.681Z,2.92
2023-05-14T16:27:00.893Z,2.95
2023-05-14T16:29:28.002Z,3.30
2023-05-14T16:31:55.321Z,2.83
2023-05-14T16:34:22.249Z,2.90
2023-05-14T16:36:49.152Z,2.92
2023-05-14T16:39:16.614Z,2.55
2023-05-14T16:41:43.463Z,2.45
2023-05-14T16:44:10.627Z,2.45
2023-05-14T16:46:37.856Z,2.15
2023-05-14T16:49:04.826Z,2.13
2023-05-14T16:51:31.806Z,2.00
2023-05-14T16:53:58.807Z,2.20
2023-05-14T16:56:26.549Z,2.03
2023-05-14T16:58:53.601Z,2.20
2023-05-14T17:01:20.598Z,2.10
2023-05-14T17:03:47.647Z,1.88
2023-05-14T17:06:14.579Z,2.20
2023-05-14T17:08:41.443Z,2.10
2023-05-14T17:11:08.371Z,2.10
2023-05-14T17:13:35.675Z,1.60
2023-05-14T17:16:02.647Z,1.90
2023-05-14T17:18:29.813Z,1.95
2023-05-14T17:20:56.888Z,2.08
2023-05-14T17:23:24.046Z,1.92
2023-05-14T17:25:51.140Z,1.92
2023-05-14T17:28:18.113Z,2.17
2023-05-14T17:30:44.981Z,1.95
2023-05-14T17:33:11.892Z,1.95
2023-05-14T17:35:39.008Z,2.15
2023-05-14T17:38:05.908Z,2.15
2023-05-14T17:40:33.489Z,1.80
2023-05-14T17:43:00.647Z,1.60
2023-05-14T17:45:29.495Z,2.05
2023-05-14T17:47:59.315Z,1.98
2023-05-14T17:50:26.355Z,2.30
2023-05-14T17:52:53.996Z,2.15
2023-05-14T17:55:21.759Z,2.10
2023-05-14T17:57:48.668Z,1.77
2023-05-14T18:00:15.707Z,2.08
2023-05-14T18:02:42.667Z,2.20
2023-05-14T18:05:09.842Z,2.08
2023-05-14T18:07:36.861Z,1.92
2023-05-14T18:10:04.448Z,1.77
2023-05-14T18:12:31.317Z,2.28
2023-05-14T18:14:58.125Z,1.95
2023-05-14T18:17:25.025Z,1.98
2023-05-14T18:19:51.922Z,2.10
2023-05-14T18:22:21.061Z,2.30
2023-05-14T18:24:47.972Z,2.00
2023-05-14T18:27:14.912Z,2.33
2023-05-14T18:29:42.722Z,2.00
2023-05-14T18:32:09.569Z,2.30
2023-05-14T18:34:36.617Z,2.63
2023-05-14T18:37:03.501Z,2.17
2023-05-14T18:39:30.482Z,2.13
2023-05-14T18:41:57.493Z,1.95
2023-05-14T18:44:24.295Z,2.40
2023-05-14T18:46:51.270Z,2.50
2023-05-14T18:49:18.142Z,2.60
2023-05-14T18:51:45.251Z,2.70
2023-05-14T18:54:12.178Z,2.47
2023-05-14T18:56:41.262Z,2.63
2023-05-14T18:59:09.292Z,2.20
2023-05-14T19:01:36.399Z,2.63
2023-05-14T19:04:05.463Z,2.70
2023-05-14T19:06:32.902Z,2.42
2023-05-14T19:09:00.784Z,2.88
2023-05-14T19:11:27.890Z,2.78
2023-05-14T19:13:54.755Z,2.33
2023-05-14T19:16:21.738Z,2.70
2023-05-14T19:18:48.842Z,2.83
2023-05-14T19:21:16.026Z,2.60
2023-05-14T19:23:43.014Z,2.70
2023-05-14T19:26:10.505Z,2.60
2023-05-14T19:28:40.370Z,2.70
2023-05-14T19:33:34.228Z,2.80
2023-05-14T19:36:01.123Z,2.63
2023-05-14T19:38:28.094Z,2.80
2023-05-14T19:40:57.002Z,2.83
2023-05-14T19:43:25.652Z,3.08
2023-05-14T19:45:52.694Z,2.90
2023-05-14T19:48:19.837Z,2.88
2023-05-14T19:50:47.562Z,3.20
2023-05-14T19:53:14.699Z,3.00
2023-05-14T19:55:41.876Z,3.20
2023-05-14T19:58:09.024Z,3.30
2023-05-14T20:00:37.065Z,3.20
2023-05-14T20:03:05.848Z,3.30
2023-05-14T20:05:34.424Z,2.92
2023-05-14T20:08:01.680Z,3.58
2023-05-14T20:10:28.715Z,3.33
2023-05-14T20:12:55.567Z,2.90
2023-05-14T20:15:22.418Z,3.35
2023-05-14T20:17:49.487Z,3.20
2023-05-14T20:20:16.720Z,3.50
2023-05-14T20:22:44.084Z,3.45
2023-05-14T20:25:11.164Z,3.38
2023-05-14T20:27:38.187Z,3.65
2023-05-14T20:30:07.027Z,3.40
2023-05-14T20:32:34.010Z,3.15
2023-05-14T20:35:03.594Z,3.60
2023-05-14T20:37:32.287Z,3.53
2023-05-14T20:40:01.301Z,3.53
2023-05-14T20:42:28.650Z,4.03
2023-05-14T20:44:55.569Z,3.35
2023-05-14T20:47:26.549Z,3.20
2023-05-14T20:49:53.496Z,3.42
2023-05-14T20:52:20.456Z,3.40
2023-05-14T20:54:48.985Z,3.45
2023-05-14T20:57:15.992Z,3.60
2023-05-14T20:59:43.329Z,3.70
2023-05-14T21:02:10.829Z,3.10
2023-05-14T21:04:38.739Z,3.10
2023-05-14T21:07:06.246Z,3.80
2023-05-14T21:09:33.296Z,3.60
2023-05-14T21:12:00.260Z,3.50
2023-05-14T21:14:27.209Z,3.63
2023-05-14T21:16:54.139Z,3.90
2023-05-14T21:19:21.174Z,4.25
2023-05-14T21:21:48.188Z,3.42
2023-05-14T21:24:16.816Z,3.47
2023-05-14T21:26:43.801Z,3.78
2023-05-14T21:29:11.298Z,3.30
2023-05-14T21:31:38.168Z,2.85
2023-05-14T21:34:05.151Z,3.25
2023-05-14T21:36:32.253Z,3.60
2023-05-14T21:38:59.097Z,3.53
2023-05-14T21:41:25.986Z,3.33
2023-05-14T21:43:52.878Z,3.55
2023-05-14T21:46:19.802Z,3.50
2023-05-14T21:48:48.009Z,3.40
2023-05-14T21:51:15.086Z,3.20
2023-05-14T21:53:42.009Z,2.97
2023-05-14T21:56:09.160Z,2.03
2023-05-14T21:58:36.100Z,2.00
2023-05-14T22:01:04.332Z,1.50
2023-05-14T22:03:32.444Z,1.50
2023-05-14T22:05:59.534Z,1.80
2023-05-14T22:08:27.286Z,1.67
2023-05-14T22:10:55.148Z,1.88
2023-05-14T22:13:22.066Z,1.90
2023-05-14T22:15:51.293Z,2.08
2023-05-14T22:18:20.236Z,1.98
2023-05-14T22:20:47.184Z,2.30
2023-05-14T22:23:14.092Z,1.80
2023-05-14T22:25:40.967Z,1.80
2023-05-14T22:28:07.766Z,2.20
2023-05-14T22:30:34.786Z,2.58
2023-05-14T22:33:01.706Z,2.60
2023-05-14T22:35:28.628Z,2.92
2023-05-14T22:37:55.768Z,2.78
2023-05-14T22:40:22.566Z,2.13
2023-05-14T22:42:49.365Z,2.10
2023-05-14T22:47:43.156Z,2.50
2023-05-14T22:50:11.640Z,2.20
2023-05-14T22:52:39.560Z,2.78
2023-05-14T22:55:07.766Z,2.50
2023-05-14T22:57:34.945Z,2.60
2023-05-14T23:00:02.101Z,2.45
2023-05-14T23:02:28.991Z,2.45
2023-05-14T23:04:56.006Z,2.85
2023-05-14T23:07:23.040Z,2.30
2023-05-14T23:09:49.857Z,2.25
2023-05-14T23:12:16.802Z,2.70
2023-05-14T23:14:43.695Z,2.60
2023-05-14T23:17:10.707Z,2.40
2023-05-14T23:19:37.550Z,2.00
2023-05-14T23:22:04.615Z,2.92
2023-05-14T23:24:31.522Z,2.67
2023-05-14T23:26:58.457Z,2.08
2023-05-14T23:29:25.508Z,2.50
2023-05-14T23:31:52.436Z,2.20
2023-05-14T23:34:19.347Z,1.90
2023-05-14T23:36:46.252Z,2.10
2023-05-14T23:39:13.228Z,2.33
2023-05-14T23:41:40.110Z,2.10
2023-05-14T23:44:07.324Z,2.10
2023-05-14T23:46:34.380Z,2.03
2023-05-14T23:49:01.427Z,1.98
2023-05-14T23:51:28.505Z,1.67
2023-05-14T23:53:58.345Z,1.73
2023-05-14T23:58:52.993Z,1.50
